Météo Nord-Pas-de-Calais   La météo au plus près de chez vous

Station météorologique

Observations météo à Chastreix (63098)

63098001 1385 m Dernier relevé à 19:48
24°C
Humidité 36 % Vent 6.1 km/h

Journée consultée

Dimanche 6 Septembre 2026

Synthèse de la journée

Périodes de référence en UTC

Température maximale

28.4°C

à 16:42

06h 06h

Température minimale

15.8°C

à 21:54

18h 18h

Rafale maximale

23 km/h

à 15:30

00h 00h

Précipitations

0 mm

Cumul quotidien

06h 06h

Ensoleillement

8h 11 mins

Durée quotidienne

00h 00h

Graphiques de la journée

Heure locale Réduire

Données détaillées

Relevés météo

Pas de 6 minutes Afficher les relevés infra-horaires
Relevés météo détaillés à Chastreix pour le Dimanche 6 Septembre 2026
Heure Température °C Point de rosée °C Humidité % Vent moyen (raf.), km/h Précipitations mm Hauteur neige cm Ensoleillement min Rayonnement global W/m²
19:48 24 °C 9.9 °C 41 % 4 km/h (9 km/h) 0 mm0 mm 0 cm 6 min 13.1 W/m²
19:42 24.4 °C 10.3 °C 41 % 5 km/h (11 km/h) 0 mm0 mm 0 cm 6 min 21.1 W/m²
19:36 24.3 °C 9.8 °C 40 % 7 km/h (13 km/h) 0 mm0 mm 0 cm 5 min 23.6 W/m²
19:30 24.3 °C 9.8 °C 40 % 5 km/h (13 km/h) 0 mm0 mm 0 cm 0 min 18.9 W/m²
19:24 24.6 °C 10.1 °C 40 % 4 km/h (9 km/h) 0 mm0 mm 0 cm 0 min 19.5 W/m²
19:18 24.9 °C 10 °C 39 % 4 km/h (7 km/h) 0 mm0 mm 0 cm 0 min 21.4 W/m²
19:12 25.1 °C 9.4 °C 37 % 3 km/h (7 km/h) 0 mm0 mm 0 cm 0 min 25.5 W/m²
19:06 25.2 °C 9.9 °C 38 % 3 km/h (8 km/h) 0 mm0 mm 0 cm 0 min 33.7 W/m²
19:00 25.2 °C 9.5 °C 37 % 4 km/h (10 km/h) 0 mm0 mm 0 cm 3 min 43.7 W/m²
18:54 25.3 °C 9.2 °C 36 % 5 km/h (10 km/h) 0 mm0 mm 0 cm 0 min 36.8 W/m²
18:48 25.4 °C 9.2 °C 36 % 6 km/h (12 km/h) 0 mm0 mm 0 cm 0 min 39.5 W/m²
18:42 25.7 °C 9.1 °C 35 % 7 km/h (13 km/h) 0 mm0 mm 0 cm 1 min 48.4 W/m²
18:36 25.7 °C 9.1 °C 35 % 6 km/h (13 km/h) 0 mm0 mm 0 cm 5 min 64.9 W/m²
18:30 25.4 °C 8 °C 33 % 6 km/h (11 km/h) 0 mm0 mm 0 cm 0 min 44.5 W/m²
18:24 25.5 °C 8 °C 33 % 7 km/h (13 km/h) 0 mm0 mm 0 cm 0 min 39 W/m²
18:18 25.7 °C 7.8 °C 32 % 8 km/h (15 km/h) 0 mm0 mm 0 cm 0 min 38.7 W/m²
18:12 26 °C 7.6 °C 31 % 8 km/h (15 km/h) 0 mm0 mm 0 cm 0 min 31.8 W/m²
18:06 26.8 °C 8.2 °C 31 % 12 km/h (20 km/h) 0 mm0 mm 0 cm 0 min 42.4 W/m²
18:00 27.6 °C 8 °C 29 % 10 km/h (20 km/h) 0 mm0 mm 0 cm 5 min 97.1 W/m²
17:54 28 °C 8.8 °C 30 % 8 km/h (15 km/h) 0 mm0 mm 0 cm 6 min 119.4 W/m²
17:48 28 °C 8.8 °C 30 % 9 km/h (18 km/h) 0 mm0 mm 0 cm 6 min 142 W/m²
17:42 27.8 °C 7.6 °C 28 % 9 km/h (19 km/h) 0 mm0 mm 0 cm 6 min 148.1 W/m²
17:36 27.8 °C 8.1 °C 29 % 7 km/h (14 km/h) 0 mm0 mm 0 cm 6 min 153.6 W/m²
17:30 27.6 °C 8.9 °C 31 % 9 km/h (17 km/h) 0 mm0 mm 0 cm 6 min 157.8 W/m²
17:24 27.5 °C 8.9 °C 31 % 9 km/h (18 km/h) 0 mm0 mm 0 cm 6 min 151.7 W/m²
17:18 26.9 °C 7.4 °C 29 % 10 km/h (18 km/h) 0 mm0 mm 0 cm 6 min 145 W/m²
17:12 26.7 °C 6.7 °C 28 % 8 km/h (15 km/h) 0 mm0 mm 0 cm 0 min 98.6 W/m²
17:06 26.8 °C 6.2 °C 27 % 7 km/h (15 km/h) 0 mm0 mm 0 cm 0 min 96 W/m²
17:00 26.7 °C 5.6 °C 26 % 9 km/h (18 km/h) 0 mm0 mm 0 cm 0 min 92.7 W/m²
16:54 27.3 °C 6.7 °C 27 % 10 km/h (18 km/h) 0 mm0 mm 0 cm 0 min 96.7 W/m²
16:48 27.8 °C 6.5 °C 26 % 12 km/h (22 km/h) 0 mm0 mm 0 cm 3 min 133.1 W/m²
16:42 28.4 °C 7.6 °C 27 % 11 km/h (22 km/h) 0 mm0 mm 0 cm 6 min 211.3 W/m²
16:36 28.3 °C 9.1 °C 30 % 7 km/h (18 km/h) 0 mm0 mm 0 cm 6 min 209.4 W/m²
16:30 27.6 °C 6.9 °C 27 % 11 km/h (22 km/h) 0 mm0 mm 0 cm 6 min 238.4 W/m²
16:24 27.4 °C 6.7 °C 27 % 13 km/h (22 km/h) 0 mm0 mm 0 cm 6 min 204.6 W/m²
16:18 27.1 °C 7 °C 28 % 12 km/h (21 km/h) 0 mm0 mm 0 cm 6 min 220.8 W/m²
16:12 27.1 °C 7 °C 28 % 8 km/h (19 km/h) 0 mm0 mm 0 cm 5 min 200.6 W/m²
16:06 27.8 °C 7.6 °C 28 % 8 km/h (18 km/h) 0 mm0 mm 0 cm 5 min 223.6 W/m²
16:00 27.3 °C 7.7 °C 29 % 10 km/h (18 km/h) 0 mm0 mm 0 cm 6 min 222.1 W/m²
15:54 27.4 °C 7.3 °C 28 % 10 km/h (22 km/h) 0 mm0 mm 0 cm 3 min 190.4 W/m²
15:48 27.4 °C 6.2 °C 26 % 12 km/h (20 km/h) 0 mm0 mm 0 cm 6 min 255.5 W/m²
15:42 27.2 °C 6.6 °C 27 % 13 km/h (22 km/h) 0 mm0 mm 0 cm 6 min 239.6 W/m²
15:36 27 °C 5.9 °C 26 % 14 km/h (23 km/h) 0 mm0 mm 0 cm 6 min 193.3 W/m²
15:30 27 °C 5.9 °C 26 % 13 km/h (23 km/h) 0 mm0 mm 0 cm 0 min 157.6 W/m²
15:24 27.9 °C 7.2 °C 27 % 12 km/h (22 km/h) 0 mm0 mm 0 cm 4 min 234 W/m²
15:18 28 °C 9.3 °C 31 % 12 km/h (21 km/h) 0 mm0 mm 0 cm 6 min 297 W/m²
15:12 27.7 °C 9.5 °C 32 % 12 km/h (23 km/h) 0 mm0 mm 0 cm 6 min 278 W/m²
15:06 27 °C 8.4 °C 31 % 14 km/h (23 km/h) 0 mm0 mm 0 cm 4 min 232 W/m²
15:00 26.8 °C 8.2 °C 31 % 12 km/h (23 km/h) 0 mm0 mm 0 cm 0 min 129.6 W/m²
14:54 27.5 °C 8.9 °C 31 % 11 km/h (21 km/h) 0 mm0 mm 0 cm 3 min 209.7 W/m²
14:48 27.3 °C 8.7 °C 31 % 10 km/h (18 km/h) 0 mm0 mm 0 cm 5 min 228.3 W/m²
14:42 27.8 °C 7.6 °C 28 % 7 km/h (15 km/h) 0 mm0 mm 0 cm 4 min 221.1 W/m²
14:36 27.7 °C 7 °C 27 % 7 km/h (15 km/h) 0 mm0 mm 0 cm 5 min 231.8 W/m²
14:30 27.4 °C 7.3 °C 28 % 5 km/h (10 km/h) 0 mm0 mm 0 cm 0 min 173.4 W/m²
14:24 27.3 °C 5.5 °C 25 % 6 km/h (16 km/h) 0 mm0 mm 0 cm 5 min 236.3 W/m²
14:18 27.6 °C 5.8 °C 25 % 10 km/h (22 km/h) 0 mm0 mm 0 cm 6 min 298.3 W/m²
14:12 27.9 °C 7.2 °C 27 % 9 km/h (17 km/h) 0 mm0 mm 0 cm 6 min 330.6 W/m²
14:06 27.5 °C 7.9 °C 29 % 4 km/h (14 km/h) 0 mm0 mm 0 cm 6 min 269.6 W/m²
14:00 27.2 °C 6.6 °C 27 % 5 km/h (15 km/h) 0 mm0 mm 0 cm 6 min 292.1 W/m²
13:54 26.8 °C 5.7 °C 26 % 7 km/h (15 km/h) 0 mm0 mm 0 cm 6 min 286.3 W/m²
13:48 27.2 °C 6 °C 26 % 9 km/h (15 km/h) 0 mm0 mm 0 cm 6 min 295.3 W/m²
13:42 27.2 °C 7.1 °C 28 % 7 km/h (14 km/h) 0 mm0 mm 0 cm 6 min 258.9 W/m²
13:36 27.1 °C 7.5 °C 29 % 7 km/h (13 km/h) 0 mm0 mm 0 cm 6 min 280.5 W/m²
13:30 26.9 °C 6.8 °C 28 % 7 km/h (15 km/h) 0 mm0 mm 0 cm 6 min 274.8 W/m²
13:24 27.2 °C 8.1 °C 30 % 8 km/h (15 km/h) 0 mm0 mm 0 cm 6 min 276 W/m²
13:18 26.9 °C 8.3 °C 31 % 7 km/h (14 km/h) 0 mm0 mm 0 cm 6 min 258.2 W/m²
13:12 26.4 °C 7.4 °C 30 % 7 km/h (14 km/h) 0 mm0 mm 0 cm 6 min 266.1 W/m²
13:06 26.6 °C 7.6 °C 30 % 6 km/h (14 km/h) 0 mm0 mm 0 cm 6 min 268.6 W/m²
13:00 26.5 °C 7 °C 29 % 6 km/h (11 km/h) 0 mm0 mm 0 cm 6 min 272.4 W/m²
12:54 26.6 °C 8.1 °C 31 % 7 km/h (14 km/h) 0 mm0 mm 0 cm 6 min 294.4 W/m²
12:48 26.5 °C 8 °C 31 % 8 km/h (14 km/h) 0 mm0 mm 0 cm 6 min 290.5 W/m²
12:42 26.1 °C 7.2 °C 30 % 7 km/h (13 km/h) 0 mm0 mm 0 cm 6 min 268.9 W/m²
12:36 26.4 °C 7.9 °C 31 % 6 km/h (12 km/h) 0 mm0 mm 0 cm 6 min 258.1 W/m²
12:30 26.2 °C 7.2 °C 30 % 6 km/h (11 km/h) 0 mm0 mm 0 cm 6 min 254 W/m²
12:24 26.3 °C 7.8 °C 31 % 7 km/h (13 km/h) 0 mm0 mm 0 cm 5 min 217.2 W/m²
12:18 26.5 °C 8 °C 31 % 7 km/h (13 km/h) 0 mm0 mm 0 cm 6 min 255.9 W/m²
12:12 26.3 °C 8.3 °C 32 % 6 km/h (14 km/h) 0 mm0 mm 0 cm 6 min 275.6 W/m²
12:06 26.2 °C 8.7 °C 33 % 6 km/h (14 km/h) 0 mm0 mm 0 cm 6 min 251.5 W/m²
12:00 26 °C 8 °C 32 % 6 km/h (12 km/h) 0 mm0 mm 0 cm 5 min 218.9 W/m²
11:54 25.7 °C 8.7 °C 34 % 8 km/h (14 km/h) 0 mm0 mm 0 cm 6 min 252.6 W/m²
11:48 25.5 °C 8.5 °C 34 % 10 km/h (15 km/h) 0 mm0 mm 0 cm 6 min 247 W/m²
11:42 25.5 °C 7.6 °C 32 % 10 km/h (16 km/h) 0 mm0 mm 0 cm 6 min 242.1 W/m²
11:36 25.8 °C 8.3 °C 33 % 6 km/h (16 km/h) 0 mm0 mm 0 cm 6 min 235.6 W/m²
11:30 25.8 °C 5.4 °C 27 % 5 km/h (12 km/h) 0 mm0 mm 0 cm 3 min 165.9 W/m²
11:24 25.5 °C 4.6 °C 26 % 8 km/h (15 km/h) 0 mm0 mm 0 cm 4 min 173 W/m²
11:18 25.2 °C 4.9 °C 27 % 10 km/h (15 km/h) 0 mm0 mm 0 cm 6 min 210.5 W/m²
11:12 24.6 °C 4.9 °C 28 % 11 km/h (17 km/h) 0 mm0 mm 0 cm 4 min 168.8 W/m²
11:06 24.2 °C 5 °C 29 % 13 km/h (18 km/h) 0 mm0 mm 0 cm 4 min 157.1 W/m²
11:00 24 °C 5.3 °C 30 % 14 km/h (19 km/h) 0 mm0 mm 0 cm 3 min 146.8 W/m²
10:54 23.7 °C 4.1 °C 28 % 15 km/h (23 km/h) 0 mm0 mm 0 cm 0 min 82.5 W/m²
10:48 23.7 °C 4.1 °C 28 % 15 km/h (23 km/h) 0 mm0 mm 0 cm 0 min 96.1 W/m²
10:42 23.7 °C 4.1 °C 28 % 12 km/h (17 km/h) 0 mm0 mm 0 cm 0 min 89.7 W/m²
10:36 23.9 °C 3.8 °C 27 % 11 km/h (17 km/h) 0 mm0 mm 0 cm 0 min 83.5 W/m²
10:30 24.1 °C 3.9 °C 27 % 9 km/h (15 km/h) 0 mm0 mm 0 cm 4 min 169.8 W/m²
10:24 23.9 °C 4.8 °C 29 % 7 km/h (13 km/h) 0 mm0 mm 0 cm 6 min 165.1 W/m²
10:18 23.7 °C 5.6 °C 31 % 7 km/h (11 km/h) 0 mm0 mm 0 cm 5 min 160.3 W/m²
10:12 23.5 °C 5.8 °C 32 % 6 km/h (11 km/h) 0 mm0 mm 0 cm 5 min 148 W/m²
10:06 23.4 °C 6.2 °C 33 % 7 km/h (12 km/h) 0 mm0 mm 0 cm 5 min 130.3 W/m²
10:00 23.3 °C 5.7 °C 32 % 6 km/h (11 km/h) 0 mm0 mm 0 cm 6 min 128.1 W/m²
09:54 23.2 °C 5.1 °C 31 % 6 km/h (8 km/h) 0 mm0 mm 0 cm 2 min 91.1 W/m²
09:48 23.4 °C 6.2 °C 33 % 4 km/h (8 km/h) 0 mm0 mm 0 cm 2 min 89.4 W/m²
09:42 23.7 °C 7.7 °C 36 % 3 km/h (6 km/h) 0 mm0 mm 0 cm 6 min 139.3 W/m²
09:36 23.2 °C 8.1 °C 38 % 4 km/h (8 km/h) 0 mm0 mm 0 cm 5 min 105.1 W/m²
09:30 23 °C 7.1 °C 36 % 5 km/h (9 km/h) 0 mm0 mm 0 cm 5 min 98.9 W/m²
09:24 22.7 °C 7.3 °C 37 % 6 km/h (10 km/h) 0 mm0 mm 0 cm 6 min 108.9 W/m²
09:18 22.4 °C 7 °C 37 % 6 km/h (10 km/h) 0 mm0 mm 0 cm 6 min 103.9 W/m²
09:12 22 °C 6.2 °C 36 % 6 km/h (9 km/h) 0 mm0 mm 0 cm 6 min 94.8 W/m²
09:06 21.7 °C 6.8 °C 38 % 6 km/h (9 km/h) 0 mm0 mm 0 cm 6 min 87 W/m²
09:00 21.8 °C 6.5 °C 37 % 8 km/h (12 km/h) 0 mm0 mm 0 cm 6 min 79.9 W/m²
08:54 21.6 °C 5.5 °C 35 % 9 km/h (13 km/h) 0 mm0 mm 0 cm 6 min 73.6 W/m²
08:48 21.2 °C 3.4 °C 31 % 10 km/h (14 km/h) 0 mm0 mm 0 cm 6 min 67.2 W/m²
08:42 21 °C 1.8 °C 28 % 11 km/h (14 km/h) 0 mm0 mm 0 cm 6 min 60.4 W/m²
08:36 20.8 °C 1.1 °C 27 % 12 km/h (15 km/h) 0 mm0 mm 0 cm 6 min 53.5 W/m²
08:30 20.7 °C 1 °C 27 % 12 km/h (15 km/h) 0 mm0 mm 0 cm 6 min 45.4 W/m²
08:24 20.6 °C 0.9 °C 27 % 12 km/h (16 km/h) 0 mm0 mm 0 cm 5 min 38.8 W/m²
08:18 20.3 °C 0.7 °C 27 % 12 km/h (16 km/h) 0 mm0 mm 0 cm 0 min 17.9 W/m²
08:12 20.3 °C 1.2 °C 28 % 12 km/h (17 km/h) 0 mm0 mm 0 cm 0 min 15.9 W/m²
08:06 20.4 °C 1.3 °C 28 % 12 km/h (17 km/h) 0 mm0 mm 0 cm 0 min 14.1 W/m²
08:00 19.9 °C 1.3 °C 29 % 12 km/h (17 km/h) 0 mm0 mm 0 cm 0 min 12.4 W/m²
07:54 19.8 °C 1.7 °C 30 % 13 km/h (17 km/h) 0 mm0 mm 0 cm 0 min 10.4 W/m²
07:48 19.3 °C 2.6 °C 33 % 12 km/h (15 km/h) 0 mm0 mm 0 cm 0 min 8.7 W/m²
07:42 19.6 °C 2.9 °C 33 % 11 km/h (14 km/h) 0 mm0 mm 0 cm 0 min 6.6 W/m²
07:36 19.9 °C 2.7 °C 32 % 9 km/h (13 km/h) 0 mm0 mm 0 cm 0 min 4.5 W/m²
07:30 19.9 °C 2.3 °C 31 % 6 km/h (10 km/h) 0 mm0 mm 0 cm 0 min 0 W/m²
07:24 19.9 °C 2.3 °C 31 % 5 km/h (7 km/h) 0 mm0 mm 0 cm 0 min 0 W/m²
07:18 20 °C 1.9 °C 30 % 4 km/h (7 km/h) 0 mm0 mm 0 cm 0 min 0 W/m²
07:12 20.1 °C 2 °C 30 % 4 km/h (7 km/h) 0 mm0 mm 0 cm 0 min 0 W/m²
07:06 20.1 °C 2 °C 30 % 5 km/h (7 km/h) 0 mm0 mm 0 cm 0 min 0 W/m²
07:00 19.9 °C 1.8 °C 30 % 6 km/h (9 km/h) 0 mm0 mm 0 cm 0 min 0 W/m²
06:54 20 °C 2.3 °C 31 % 5 km/h (9 km/h) 0 mm0 mm 0 cm 0 min 0 W/m²
06:48 20.2 °C 2.5 °C 31 % 4 km/h (6 km/h) 0 mm0 mm 0 cm 0 min 0 W/m²
06:42 20.2 °C 2.5 °C 31 % 4 km/h (6 km/h) 0 mm0 mm 0 cm 0 min 0 W/m²
06:36 20.1 °C 2.9 °C 32 % 5 km/h (9 km/h) 0 mm0 mm 0 cm 0 min 0 W/m²
06:30 20.2 °C 3.4 °C 33 % 7 km/h (11 km/h) 0 mm0 mm 0 cm 0 min 0 W/m²
06:24 20 °C 4.1 °C 35 % 8 km/h (12 km/h) 0 mm0 mm 0 cm 0 min 0 W/m²
06:18 19.8 °C 4.7 °C 37 % 9 km/h (11 km/h) 0 mm0 mm 0 cm 0 min 0 W/m²
06:12 19.6 °C 5.3 °C 39 % 8 km/h (11 km/h) 0 mm0 mm 0 cm 0 min 0 W/m²
06:06 19.6 °C 6.3 °C 42 % 8 km/h (10 km/h) 0 mm0 mm 0 cm 0 min 0 W/m²
06:00 19.5 °C 6.2 °C 42 % 7 km/h (9 km/h) 0 mm0 mm 0 cm 0 min 0 W/m²
05:54 19.5 °C 6.2 °C 42 % 6 km/h (8 km/h) 0 mm0 mm 0 cm 0 min 0 W/m²
05:48 19.4 °C 6.1 °C 42 % 4 km/h (7 km/h) 0 mm0 mm 0 cm 0 min 0 W/m²
05:42 19.1 °C 6.2 °C 43 % 3 km/h (6 km/h) 0 mm0 mm 0 cm 0 min 0 W/m²
05:36 19.1 °C 5.9 °C 42 % 2 km/h (4 km/h) 0 mm0 mm 0 cm 0 min 0 W/m²
05:30 19.1 °C 5.9 °C 42 % 3 km/h (6 km/h) 0 mm0 mm 0 cm 0 min 0 W/m²
05:24 19.1 °C 5.5 °C 41 % 3 km/h (6 km/h) 0 mm0 mm 0 cm 0 min 0 W/m²
05:18 19.1 °C 5.5 °C 41 % 5 km/h (9 km/h) 0 mm0 mm 0 cm 0 min 0 W/m²
05:12 19.7 °C 6.4 °C 42 % 6 km/h (10 km/h) 0 mm0 mm 0 cm 0 min 0 W/m²
05:06 19.5 °C 6.6 °C 43 % 6 km/h (10 km/h) 0 mm0 mm 0 cm 0 min 0 W/m²
05:00 18.7 °C 6.5 °C 45 % 8 km/h (10 km/h) 0 mm0 mm 0 cm 0 min 0 W/m²
04:54 18.3 °C 6.2 °C 45 % 7 km/h (10 km/h) 0 mm0 mm 0 cm 0 min 0 W/m²
04:48 18.4 °C 5.9 °C 44 % 5 km/h (8 km/h) 0 mm0 mm 0 cm 0 min 0 W/m²
04:42 18.5 °C 6.3 °C 45 % 4 km/h (8 km/h) 0 mm0 mm 0 cm 0 min 0 W/m²
04:36 18.2 °C 5.4 °C 43 % 4 km/h (6 km/h) 0 mm0 mm 0 cm 0 min 0 W/m²
04:30 18.2 °C 5.7 °C 44 % 4 km/h (7 km/h) 0 mm0 mm 0 cm 0 min 0 W/m²
04:24 18.4 °C 5.6 °C 43 % 4 km/h (7 km/h) 0 mm0 mm 0 cm 0 min 0 W/m²
04:18 18.5 °C 5.7 °C 43 % 4 km/h (8 km/h) 0 mm0 mm 0 cm 0 min 0 W/m²
04:12 18.7 °C 5.9 °C 43 % 5 km/h (11 km/h) 0 mm0 mm 0 cm 0 min 0 W/m²
04:06 18.5 °C 5.3 °C 42 % 4 km/h (11 km/h) 0 mm0 mm 0 cm 0 min 0 W/m²
04:00 19.2 °C 6 °C 42 % 3 km/h (8 km/h) 0 mm0 mm 0 cm 0 min 0 W/m²
03:54 19.5 °C 6.2 °C 42 % 6 km/h (11 km/h) 0 mm0 mm 0 cm 0 min 0 W/m²
03:48 19.3 °C 6.4 °C 43 % 9 km/h (12 km/h) 0 mm0 mm 0 cm 0 min 0 W/m²
03:42 18.8 °C 6.3 °C 44 % 9 km/h (13 km/h) 0 mm0 mm 0 cm 0 min 0 W/m²
03:36 18.7 °C 6.5 °C 45 % 11 km/h (15 km/h) 0 mm0 mm 0 cm 0 min 0 W/m²
03:30 18.8 °C 6.6 °C 45 % 12 km/h (15 km/h) 0 mm0 mm 0 cm 0 min 0 W/m²
03:24 18.6 °C 6.4 °C 45 % 12 km/h (15 km/h) 0 mm0 mm 0 cm 0 min 0 W/m²
03:18 18.6 °C 6.1 °C 44 % 11 km/h (13 km/h) 0 mm0 mm 0 cm 0 min 0 W/m²
03:12 18.8 °C 5.3 °C 41 % 11 km/h (13 km/h) 0 mm0 mm 0 cm 0 min 0 W/m²
03:06 18.9 °C 4.3 °C 38 % 11 km/h (13 km/h) 0 mm0 mm 0 cm 0 min 0 W/m²
03:00 18.8 °C 4.2 °C 38 % 10 km/h (12 km/h) 0 mm0 mm 0 cm 0 min 0 W/m²
02:54 18.5 °C 4.3 °C 39 % 7 km/h (11 km/h) 0 mm0 mm 0 cm 0 min 0 W/m²
02:48 18.6 °C 4.4 °C 39 % 5 km/h (8 km/h) 0 mm0 mm 0 cm 0 min 0 W/m²
02:42 18.2 °C 4 °C 39 % 5 km/h (8 km/h) 0 mm0 mm 0 cm 0 min 0 W/m²
02:36 18.2 °C 3.6 °C 38 % 5 km/h (8 km/h) 0 mm0 mm 0 cm 0 min 0 W/m²
02:30 18.8 °C 3.8 °C 37 % 4 km/h (8 km/h) 0 mm0 mm 0 cm 0 min 0 W/m²
02:24 18.9 °C 3.9 °C 37 % 4 km/h (6 km/h) 0 mm0 mm 0 cm 0 min 0 W/m²
02:18 19.2 °C 3.8 °C 36 % 5 km/h (8 km/h) 0 mm0 mm 0 cm 0 min 0 W/m²
02:12 19 °C 4 °C 37 % 5 km/h (8 km/h) 0 mm0 mm 0 cm 0 min 0 W/m²
02:06 18.6 °C 4 °C 38 % 5 km/h (6 km/h) 0 mm0 mm 0 cm 0 min 0 W/m²
02:00 18.1 °C 4.3 °C 40 % 5 km/h (8 km/h) 0 mm0 mm 0 cm 0 min 0 W/m²
01:54 18.1 °C 4.6 °C 41 % 6 km/h (9 km/h) 0 mm0 mm 0 cm 0 min 0 W/m²
01:48 18.4 °C 5.6 °C 43 % 6 km/h (9 km/h) 0 mm0 mm 0 cm 0 min 0 W/m²
01:42 17.9 °C 5.1 °C 43 % 5 km/h (8 km/h) 0 mm0 mm 0 cm 0 min 0 W/m²
01:36 19 °C 7.1 °C 46 % 5 km/h (8 km/h) 0 mm0 mm 0 cm 0 min 0 W/m²
01:30 19 °C 7.7 °C 48 % 4 km/h (7 km/h) 0 mm0 mm 0 cm 0 min 0 W/m²
01:24 19 °C 7.7 °C 48 % 5 km/h (8 km/h) 0 mm0 mm 0 cm 0 min 0 W/m²
01:18 18.9 °C 7.3 °C 47 % 6 km/h (10 km/h) 0 mm0 mm 0 cm 0 min 0 W/m²
01:12 18.4 °C 6.2 °C 45 % 6 km/h (10 km/h) 0 mm0 mm 0 cm 0 min 0 W/m²
01:06 18.7 °C 4.5 °C 39 % 5 km/h (8 km/h) 0 mm0 mm 0 cm 0 min 0 W/m²
01:00 18.9 °C 4.3 °C 38 % 4 km/h (8 km/h) 0 mm0 mm 0 cm 0 min 0 W/m²
00:54 18 °C 4.5 °C 41 % 4 km/h (7 km/h) 0 mm0 mm 0 cm 0 min 0 W/m²
00:48 17.9 °C 4.5 °C 41 % 6 km/h (9 km/h) 0 mm0 mm 0 cm 0 min 0 W/m²
00:42 18 °C 5.2 °C 43 % 7 km/h (9 km/h) 0 mm0 mm 0 cm 0 min 0 W/m²
00:36 18.4 °C 6.2 °C 45 % 6 km/h (10 km/h) 0 mm0 mm 0 cm 0 min 0 W/m²
00:30 18.1 °C 7.8 °C 51 % 6 km/h (12 km/h) 0 mm0 mm 0 cm 0 min 0 W/m²
00:24 17.9 °C 9.8 °C 59 % 10 km/h (16 km/h) 0 mm0 mm 0 cm 0 min 0 W/m²
00:18 16.7 °C 9.4 °C 62 % 12 km/h (17 km/h) 0 mm0 mm 0 cm 0 min 0 W/m²
00:12 17.5 °C 11.1 °C 66 % 10 km/h (15 km/h) 0 mm0 mm 0 cm 0 min 0 W/m²
00:06 16.7 °C 10.5 °C 67 % 9 km/h (15 km/h) 0 mm0 mm 0 cm 0 min 0 W/m²
00:00 16.9 °C 10.7 °C 67 % 8 km/h (11 km/h) 0 mm0 mm 0 cm 0 min 0 W/m²

Données via Météo-France

Relevés météo à Chastreix

Cette page rassemble les observations de la station de Chastreix : température, humidité, vent, précipitations et pression atmosphérique. Les graphiques facilitent le suivi de la journée, tandis que le tableau donne accès aux mesures horaires et infra-horaires disponibles.

Pour replacer ces mesures dans leur contexte, consultez la climatologie de Chastreix ainsi que ses normales et records. Retrouvez aussi la carte des observations météo en temps réel.